sensor_id;sensor_type;location;lat;lon;timestamp;temperature;humidity
152;DHT22;68;48.792;9.164;2024-03-02T00:01:07;7.40;93.80
152;DHT22;68;48.792;9.164;2024-03-02T00:03:33;7.30;93.30
152;DHT22;68;48.792;9.164;2024-03-02T00:06:00;7.10;91.60
152;DHT22;68;48.792;9.164;2024-03-02T00:08:26;7.10;89.70
152;DHT22;68;48.792;9.164;2024-03-02T00:10:57;7.30;91.60
152;DHT22;68;48.792;9.164;2024-03-02T00:13:24;7.20;94.20
152;DHT22;68;48.792;9.164;2024-03-02T00:15:52;6.90;91.00
152;DHT22;68;48.792;9.164;2024-03-02T00:18:26;7.00;87.20
152;DHT22;68;48.792;9.164;2024-03-02T00:20:54;7.40;92.20
152;DHT22;68;48.792;9.164;2024-03-02T00:23:23;7.50;93.90
152;DHT22;68;48.792;9.164;2024-03-02T00:25:50;7.70;95.40
152;DHT22;68;48.792;9.164;2024-03-02T00:28:20;7.60;95.80
152;DHT22;68;48.792;9.164;2024-03-02T00:30:56;7.50;95.20
152;DHT22;68;48.792;9.164;2024-03-02T00:33:27;7.20;92.70
152;DHT22;68;48.792;9.164;2024-03-02T00:35:54;7.40;94.40
152;DHT22;68;48.792;9.164;2024-03-02T00:38:20;7.50;94.20
152;DHT22;68;48.792;9.164;2024-03-02T00:40:48;7.30;94.40
152;DHT22;68;48.792;9.164;2024-03-02T00:43:41;7.30;93.70
152;DHT22;68;48.792;9.164;2024-03-02T00:46:08;7.10;92.60
152;DHT22;68;48.792;9.164;2024-03-02T00:48:37;7.20;92.60
152;DHT22;68;48.792;9.164;2024-03-02T00:51:04;7.20;93.80
152;DHT22;68;48.792;9.164;2024-03-02T00:53:31;6.90;90.30
152;DHT22;68;48.792;9.164;2024-03-02T00:55:59;7.00;92.90
152;DHT22;68;48.792;9.164;2024-03-02T00:58:26;6.90;93.20
152;DHT22;68;48.792;9.164;2024-03-02T01:00:53;6.70;91.60
152;DHT22;68;48.792;9.164;2024-03-02T01:03:19;6.70;91.90
152;DHT22;68;48.792;9.164;2024-03-02T01:05:47;6.90;90.80
152;DHT22;68;48.792;9.164;2024-03-02T01:08:14;6.90;92.80
152;DHT22;68;48.792;9.164;2024-03-02T01:10:41;6.80;92.50
152;DHT22;68;48.792;9.164;2024-03-02T01:13:08;6.80;92.40
152;DHT22;68;48.792;9.164;2024-03-02T01:15:35;6.70;88.90
152;DHT22;68;48.792;9.164;2024-03-02T01:18:02;6.60;90.30
152;DHT22;68;48.792;9.164;2024-03-02T01:20:29;6.60;88.00
152;DHT22;68;48.792;9.164;2024-03-02T01:22:57;6.70;90.70
152;DHT22;68;48.792;9.164;2024-03-02T01:25:24;6.70;92.50
152;DHT22;68;48.792;9.164;2024-03-02T01:27:50;6.60;90.30
152;DHT22;68;48.792;9.164;2024-03-02T01:30:17;6.50;91.20
152;DHT22;68;48.792;9.164;2024-03-02T01:32:44;6.60;89.30
152;DHT22;68;48.792;9.164;2024-03-02T01:35:11;6.60;91.70
152;DHT22;68;48.792;9.164;2024-03-02T01:37:37;6.50;90.80
152;DHT22;68;48.792;9.164;2024-03-02T01:40:07;6.70;88.90
152;DHT22;68;48.792;9.164;2024-03-02T01:42:35;6.80;93.80
152;DHT22;68;48.792;9.164;2024-03-02T01:45:03;6.40;91.70
152;DHT22;68;48.792;9.164;2024-03-02T01:47:30;6.30;89.10
152;DHT22;68;48.792;9.164;2024-03-02T01:49:57;6.10;87.30
152;DHT22;68;48.792;9.164;2024-03-02T01:52:25;6.10;84.90
152;DHT22;68;48.792;9.164;2024-03-02T01:54:52;6.00;83.80
152;DHT22;68;48.792;9.164;2024-03-02T01:57:20;5.90;81.10
152;DHT22;68;48.792;9.164;2024-03-02T01:59:47;5.90;79.90
152;DHT22;68;48.792;9.164;2024-03-02T02:02:14;5.90;78.20
152;DHT22;68;48.792;9.164;2024-03-02T02:04:41;6.00;80.60
152;DHT22;68;48.792;9.164;2024-03-02T02:07:07;6.10;86.70
152;DHT22;68;48.792;9.164;2024-03-02T02:09:34;5.90;83.70
152;DHT22;68;48.792;9.164;2024-03-02T02:12:01;5.80;78.40
152;DHT22;68;48.792;9.164;2024-03-02T02:14:30;5.90;76.80
152;DHT22;68;48.792;9.164;2024-03-02T02:16:57;6.00;84.80
152;DHT22;68;48.792;9.164;2024-03-02T02:19:24;5.80;81.70
152;DHT22;68;48.792;9.164;2024-03-02T02:21:52;6.00;79.60
152;DHT22;68;48.792;9.164;2024-03-02T02:24:19;6.10;85.10
152;DHT22;68;48.792;9.164;2024-03-02T02:26:45;5.90;85.10
152;DHT22;68;48.792;9.164;2024-03-02T02:29:12;6.00;80.40
152;DHT22;68;48.792;9.164;2024-03-02T02:31:39;6.10;85.10
152;DHT22;68;48.792;9.164;2024-03-02T02:34:06;6.00;84.50
152;DHT22;68;48.792;9.164;2024-03-02T02:36:35;6.10;86.80
152;DHT22;68;48.792;9.164;2024-03-02T02:39:05;6.10;89.20
152;DHT22;68;48.792;9.164;2024-03-02T02:41:33;5.90;85.70
152;DHT22;68;48.792;9.164;2024-03-02T02:44:00;5.70;83.10
152;DHT22;68;48.792;9.164;2024-03-02T02:46:26;5.70;84.30
152;DHT22;68;48.792;9.164;2024-03-02T02:48:53;5.80;83.60
152;DHT22;68;48.792;9.164;2024-03-02T02:51:20;6.00;83.70
152;DHT22;68;48.792;9.164;2024-03-02T02:53:46;6.10;83.00
152;DHT22;68;48.792;9.164;2024-03-02T02:56:14;6.30;89.00
152;DHT22;68;48.792;9.164;2024-03-02T02:58:41;6.20;90.60
152;DHT22;68;48.792;9.164;2024-03-02T03:01:08;6.30;89.80
152;DHT22;68;48.792;9.164;2024-03-02T03:03:35;6.30;90.90
152;DHT22;68;48.792;9.164;2024-03-02T03:06:02;6.40;90.70
152;DHT22;68;48.792;9.164;2024-03-02T03:08:28;6.50;91.60
152;DHT22;68;48.792;9.164;2024-03-02T03:10:55;6.50;94.20
152;DHT22;68;48.792;9.164;2024-03-02T03:13:23;6.30;91.70
152;DHT22;68;48.792;9.164;2024-03-02T03:15:51;6.20;91.70
152;DHT22;68;48.792;9.164;2024-03-02T03:18:18;6.10;89.60
152;DHT22;68;48.792;9.164;2024-03-02T03:20:45;6.20;91.70
152;DHT22;68;48.792;9.164;2024-03-02T03:23:12;6.10;89.00
152;DHT22;68;48.792;9.164;2024-03-02T03:25:40;5.80;84.50
152;DHT22;68;48.792;9.164;2024-03-02T03:28:07;5.90;86.10
152;DHT22;68;48.792;9.164;2024-03-02T03:30:36;6.00;84.80
152;DHT22;68;48.792;9.164;2024-03-02T03:33:03;6.20;89.50
152;DHT22;68;48.792;9.164;2024-03-02T03:35:31;6.20;90.30
152;DHT22;68;48.792;9.164;2024-03-02T03:37:58;6.20;90.40
152;DHT22;68;48.792;9.164;2024-03-02T03:40:25;6.10;91.20
152;DHT22;68;48.792;9.164;2024-03-02T03:42:50;6.40;91.70
152;DHT22;68;48.792;9.164;2024-03-02T03:45:17;6.60;93.30
152;DHT22;68;48.792;9.164;2024-03-02T03:47:45;6.40;94.30
152;DHT22;68;48.792;9.164;2024-03-02T03:50:13;6.20;92.90
152;DHT22;68;48.792;9.164;2024-03-02T03:52:40;5.90;91.00
152;DHT22;68;48.792;9.164;2024-03-02T03:55:07;6.10;88.90
152;DHT22;68;48.792;9.164;2024-03-02T03:57:34;6.00;87.80
152;DHT22;68;48.792;9.164;2024-03-02T04:00:01;5.80;90.20
152;DHT22;68;48.792;9.164;2024-03-02T04:02:27;5.60;83.70
152;DHT22;68;48.792;9.164;2024-03-02T04:04:56;5.40;81.90
152;DHT22;68;48.792;9.164;2024-03-02T04:07:22;5.40;72.60
152;DHT22;68;48.792;9.164;2024-03-02T04:09:49;5.40;76.00
152;DHT22;68;48.792;9.164;2024-03-02T04:12:16;5.40;76.50
152;DHT22;68;48.792;9.164;2024-03-02T04:14:42;5.20;75.10
152;DHT22;68;48.792;9.164;2024-03-02T04:17:09;5.20;68.70
152;DHT22;68;48.792;9.164;2024-03-02T04:19:36;5.30;75.20
152;DHT22;68;48.792;9.164;2024-03-02T04:22:04;5.20;73.40
152;DHT22;68;48.792;9.164;2024-03-02T04:24:31;5.00;68.10
152;DHT22;68;48.792;9.164;2024-03-02T04:26:57;4.90;66.20
152;DHT22;68;48.792;9.164;2024-03-02T04:29:24;4.90;63.70
152;DHT22;68;48.792;9.164;2024-03-02T04:31:51;5.00;58.60
152;DHT22;68;48.792;9.164;2024-03-02T04:34:18;5.30;60.70
152;DHT22;68;48.792;9.164;2024-03-02T04:36:44;5.50;71.80
152;DHT22;68;48.792;9.164;2024-03-02T04:39:12;5.50;76.60
152;DHT22;68;48.792;9.164;2024-03-02T04:41:39;5.50;79.70
152;DHT22;68;48.792;9.164;2024-03-02T04:44:06;5.30;78.30
152;DHT22;68;48.792;9.164;2024-03-02T04:46:33;5.40;71.50
152;DHT22;68;48.792;9.164;2024-03-02T04:49:00;5.40;71.90
152;DHT22;68;48.792;9.164;2024-03-02T04:51:27;5.50;72.20
152;DHT22;68;48.792;9.164;2024-03-02T04:53:53;5.50;75.10
152;DHT22;68;48.792;9.164;2024-03-02T04:56:21;5.40;78.90
152;DHT22;68;48.792;9.164;2024-03-02T04:59:09;5.40;72.70
152;DHT22;68;48.792;9.164;2024-03-02T05:01:36;5.40;75.60
152;DHT22;68;48.792;9.164;2024-03-02T05:04:03;5.60;75.80
152;DHT22;68;48.792;9.164;2024-03-02T05:06:30;5.70;82.40
152;DHT22;68;48.792;9.164;2024-03-02T05:08:56;5.90;85.00
152;DHT22;68;48.792;9.164;2024-03-02T05:11:25;6.00;87.00
152;DHT22;68;48.792;9.164;2024-03-02T05:14:09;6.00;87.90
152;DHT22;68;48.792;9.164;2024-03-02T05:16:36;6.10;89.70
152;DHT22;68;48.792;9.164;2024-03-02T05:19:04;6.20;91.10
152;DHT22;68;48.792;9.164;2024-03-02T05:21:32;6.20;90.60
152;DHT22;68;48.792;9.164;2024-03-02T05:23:59;6.30;91.30
152;DHT22;68;48.792;9.164;2024-03-02T05:26:27;6.10;90.80
152;DHT22;68;48.792;9.164;2024-03-02T05:28:54;6.20;90.10
152;DHT22;68;48.792;9.164;2024-03-02T05:31:21;6.30;90.60
152;DHT22;68;48.792;9.164;2024-03-02T05:33:47;6.10;91.90
152;DHT22;68;48.792;9.164;2024-03-02T05:36:14;6.00;90.00
152;DHT22;68;48.792;9.164;2024-03-02T05:38:41;6.10;89.70
152;DHT22;68;48.792;9.164;2024-03-02T05:41:08;6.20;91.50
152;DHT22;68;48.792;9.164;2024-03-02T05:43:36;6.10;90.70
152;DHT22;68;48.792;9.164;2024-03-02T05:46:03;6.20;92.20
152;DHT22;68;48.792;9.164;2024-03-02T05:48:29;6.10;92.40
152;DHT22;68;48.792;9.164;2024-03-02T05:50:56;6.10;91.80
152;DHT22;68;48.792;9.164;2024-03-02T05:53:23;6.10;91.40
152;DHT22;68;48.792;9.164;2024-03-02T05:55:50;6.00;90.30
152;DHT22;68;48.792;9.164;2024-03-02T05:58:19;6.10;90.80
152;DHT22;68;48.792;9.164;2024-03-02T06:00:58;6.00;91.30
152;DHT22;68;48.792;9.164;2024-03-02T06:03:24;6.10;90.70
152;DHT22;68;48.792;9.164;2024-03-02T06:05:51;6.30;92.10
152;DHT22;68;48.792;9.164;2024-03-02T06:08:18;6.30;93.70
152;DHT22;68;48.792;9.164;2024-03-02T06:10:45;6.00;93.00
152;DHT22;68;48.792;9.164;2024-03-02T06:13:12;6.00;89.10
152;DHT22;68;48.792;9.164;2024-03-02T06:15:38;6.10;88.80
152;DHT22;68;48.792;9.164;2024-03-02T06:18:07;6.20;88.40
152;DHT22;68;48.792;9.164;2024-03-02T06:20:33;6.40;91.80
152;DHT22;68;48.792;9.164;2024-03-02T06:23:00;6.50;93.10
152;DHT22;68;48.792;9.164;2024-03-02T06:25:27;6.70;94.80
152;DHT22;68;48.792;9.164;2024-03-02T06:27:54;6.70;95.00
152;DHT22;68;48.792;9.164;2024-03-02T06:30:20;6.80;95.20
152;DHT22;68;48.792;9.164;2024-03-02T06:32:46;6.90;95.80
152;DHT22;68;48.792;9.164;2024-03-02T06:35:14;6.80;95.60
152;DHT22;68;48.792;9.164;2024-03-02T06:37:40;6.80;95.60
152;DHT22;68;48.792;9.164;2024-03-02T06:40:08;6.80;95.50
152;DHT22;68;48.792;9.164;2024-03-02T06:42:35;6.90;95.40
152;DHT22;68;48.792;9.164;2024-03-02T06:45:02;6.90;95.60
152;DHT22;68;48.792;9.164;2024-03-02T06:47:29;7.00;95.80
152;DHT22;68;48.792;9.164;2024-03-02T06:49:56;7.00;96.00
152;DHT22;68;48.792;9.164;2024-03-02T06:52:25;7.10;96.30
152;DHT22;68;48.792;9.164;2024-03-02T06:54:52;7.20;96.50
152;DHT22;68;48.792;9.164;2024-03-02T06:57:18;7.10;96.50
152;DHT22;68;48.792;9.164;2024-03-02T06:59:46;7.10;96.50
152;DHT22;68;48.792;9.164;2024-03-02T07:02:14;7.00;96.10
152;DHT22;68;48.792;9.164;2024-03-02T07:04:40;7.00;96.60
152;DHT22;68;48.792;9.164;2024-03-02T07:07:07;7.10;96.40
152;DHT22;68;48.792;9.164;2024-03-02T07:09:35;7.10;96.50
152;DHT22;68;48.792;9.164;2024-03-02T07:12:02;7.10;96.50
152;DHT22;68;48.792;9.164;2024-03-02T07:14:29;7.10;96.70
152;DHT22;68;48.792;9.164;2024-03-02T07:17:10;7.20;96.70
152;DHT22;68;48.792;9.164;2024-03-02T07:19:38;7.20;96.80
152;DHT22;68;48.792;9.164;2024-03-02T07:22:06;7.20;96.70
152;DHT22;68;48.792;9.164;2024-03-02T07:24:39;7.30;96.60
152;DHT22;68;48.792;9.164;2024-03-02T07:27:06;7.40;96.80
152;DHT22;68;48.792;9.164;2024-03-02T07:29:33;7.50;96.70
152;DHT22;68;48.792;9.164;2024-03-02T07:32:00;7.40;96.50
152;DHT22;68;48.792;9.164;2024-03-02T07:34:26;7.50;96.70
152;DHT22;68;48.792;9.164;2024-03-02T07:36:53;7.40;96.60
152;DHT22;68;48.792;9.164;2024-03-02T07:39:20;7.30;96.50
152;DHT22;68;48.792;9.164;2024-03-02T07:41:49;7.40;96.70
152;DHT22;68;48.792;9.164;2024-03-02T07:44:16;7.40;96.50
152;DHT22;68;48.792;9.164;2024-03-02T07:46:45;7.30;96.50
152;DHT22;68;48.792;9.164;2024-03-02T07:49:13;7.10;96.70
152;DHT22;68;48.792;9.164;2024-03-02T07:51:40;7.20;96.90
152;DHT22;68;48.792;9.164;2024-03-02T07:54:07;7.40;96.60
152;DHT22;68;48.792;9.164;2024-03-02T07:56:33;7.50;96.60
152;DHT22;68;48.792;9.164;2024-03-02T07:59:02;7.80;96.10
152;DHT22;68;48.792;9.164;2024-03-02T08:01:29;7.90;95.50
152;DHT22;68;48.792;9.164;2024-03-02T08:03:56;8.00;94.90
152;DHT22;68;48.792;9.164;2024-03-02T08:06:24;8.00;94.60
152;DHT22;68;48.792;9.164;2024-03-02T08:08:53;8.00;94.60
152;DHT22;68;48.792;9.164;2024-03-02T08:11:20;8.10;94.60
152;DHT22;68;48.792;9.164;2024-03-02T08:13:47;8.00;94.30
152;DHT22;68;48.792;9.164;2024-03-02T08:16:15;8.00;94.60
152;DHT22;68;48.792;9.164;2024-03-02T08:18:45;8.00;94.40
152;DHT22;68;48.792;9.164;2024-03-02T08:21:12;8.00;94.60
152;DHT22;68;48.792;9.164;2024-03-02T08:23:39;8.00;94.70
152;DHT22;68;48.792;9.164;2024-03-02T08:26:07;8.10;94.50
152;DHT22;68;48.792;9.164;2024-03-02T08:28:34;8.10;94.00
152;DHT22;68;48.792;9.164;2024-03-02T08:31:02;8.20;93.60
152;DHT22;68;48.792;9.164;2024-03-02T08:33:30;8.20;94.00
152;DHT22;68;48.792;9.164;2024-03-02T08:35:57;8.30;92.70
152;DHT22;68;48.792;9.164;2024-03-02T08:38:24;8.30;92.80
152;DHT22;68;48.792;9.164;2024-03-02T08:40:51;8.50;92.70
152;DHT22;68;48.792;9.164;2024-03-02T08:43:19;8.60;92.30
152;DHT22;68;48.792;9.164;2024-03-02T08:45:48;8.60;91.40
152;DHT22;68;48.792;9.164;2024-03-02T08:48:16;8.60;92.30
152;DHT22;68;48.792;9.164;2024-03-02T08:50:44;8.80;91.20
152;DHT22;68;48.792;9.164;2024-03-02T08:53:11;8.90;90.40
152;DHT22;68;48.792;9.164;2024-03-02T08:55:38;9.00;89.70
152;DHT22;68;48.792;9.164;2024-03-02T08:58:04;9.20;89.90
152;DHT22;68;48.792;9.164;2024-03-02T09:00:31;9.20;88.80
152;DHT22;68;48.792;9.164;2024-03-02T09:03:01;9.30;88.80
152;DHT22;68;48.792;9.164;2024-03-02T09:05:27;9.50;88.40
152;DHT22;68;48.792;9.164;2024-03-02T09:07:55;9.60;87.00
152;DHT22;68;48.792;9.164;2024-03-02T09:10:22;9.70;86.10
152;DHT22;68;48.792;9.164;2024-03-02T09:12:49;9.80;86.30
152;DHT22;68;48.792;9.164;2024-03-02T09:15:16;10.00;86.40
152;DHT22;68;48.792;9.164;2024-03-02T09:17:42;10.20;85.90
152;DHT22;68;48.792;9.164;2024-03-02T09:20:10;10.20;84.60
152;DHT22;68;48.792;9.164;2024-03-02T09:22:42;10.30;84.20
152;DHT22;68;48.792;9.164;2024-03-02T09:25:10;10.40;84.20
152;DHT22;68;48.792;9.164;2024-03-02T09:27:37;10.50;84.60
152;DHT22;68;48.792;9.164;2024-03-02T09:30:05;10.70;84.00
152;DHT22;68;48.792;9.164;2024-03-02T09:32:31;10.70;83.20
152;DHT22;68;48.792;9.164;2024-03-02T09:35:01;10.80;82.30
152;DHT22;68;48.792;9.164;2024-03-02T09:37:28;10.80;81.60
152;DHT22;68;48.792;9.164;2024-03-02T09:39:55;10.90;81.70
152;DHT22;68;48.792;9.164;2024-03-02T09:42:23;11.00;81.30
152;DHT22;68;48.792;9.164;2024-03-02T09:44:51;11.10;81.00
152;DHT22;68;48.792;9.164;2024-03-02T09:47:18;11.20;80.10
152;DHT22;68;48.792;9.164;2024-03-02T09:49:45;11.30;80.10
152;DHT22;68;48.792;9.164;2024-03-02T09:52:13;11.40;79.80
152;DHT22;68;48.792;9.164;2024-03-02T09:54:40;11.60;79.70
152;DHT22;68;48.792;9.164;2024-03-02T09:57:08;11.60;78.50
152;DHT22;68;48.792;9.164;2024-03-02T09:59:36;11.70;77.90
152;DHT22;68;48.792;9.164;2024-03-02T10:02:03;11.70;78.30
152;DHT22;68;48.792;9.164;2024-03-02T10:04:33;11.90;77.80
152;DHT22;68;48.792;9.164;2024-03-02T10:07:11;12.00;77.00
152;DHT22;68;48.792;9.164;2024-03-02T10:09:38;12.20;75.90
152;DHT22;68;48.792;9.164;2024-03-02T10:12:06;12.30;76.70
152;DHT22;68;48.792;9.164;2024-03-02T10:14:33;12.50;76.20
152;DHT22;68;48.792;9.164;2024-03-02T10:17:05;12.60;74.70
152;DHT22;68;48.792;9.164;2024-03-02T10:19:33;12.70;75.20
152;DHT22;68;48.792;9.164;2024-03-02T10:22:03;12.60;75.20
152;DHT22;68;48.792;9.164;2024-03-02T10:24:35;12.70;74.90
152;DHT22;68;48.792;9.164;2024-03-02T10:27:07;12.90;74.50
152;DHT22;68;48.792;9.164;2024-03-02T10:29:37;13.10;73.50
152;DHT22;68;48.792;9.164;2024-03-02T10:32:10;13.30;73.40
152;DHT22;68;48.792;9.164;2024-03-02T10:34:39;13.60;72.50
152;DHT22;68;48.792;9.164;2024-03-02T10:37:07;13.60;72.90
152;DHT22;68;48.792;9.164;2024-03-02T10:39:35;13.70;72.10
152;DHT22;68;48.792;9.164;2024-03-02T10:42:03;13.70;71.20
152;DHT22;68;48.792;9.164;2024-03-02T10:44:31;12.70;72.50
152;DHT22;68;48.792;9.164;2024-03-02T10:47:00;12.70;76.10
152;DHT22;68;48.792;9.164;2024-03-02T10:49:32;13.30;74.10
152;DHT22;68;48.792;9.164;2024-03-02T10:52:00;12.90;73.40
152;DHT22;68;48.792;9.164;2024-03-02T10:54:27;13.40;72.70
152;DHT22;68;48.792;9.164;2024-03-02T10:56:58;13.60;72.20
152;DHT22;68;48.792;9.164;2024-03-02T10:59:28;13.50;72.20
152;DHT22;68;48.792;9.164;2024-03-02T11:01:57;13.10;73.70
152;DHT22;68;48.792;9.164;2024-03-02T11:04:25;12.70;75.90
152;DHT22;68;48.792;9.164;2024-03-02T11:06:58;12.70;75.90
152;DHT22;68;48.792;9.164;2024-03-02T11:09:27;12.70;75.60
152;DHT22;68;48.792;9.164;2024-03-02T11:12:00;13.00;75.70
152;DHT22;68;48.792;9.164;2024-03-02T11:14:32;13.70;75.70
152;DHT22;68;48.792;9.164;2024-03-02T11:17:01;13.60;72.30
152;DHT22;68;48.792;9.164;2024-03-02T11:19:31;13.40;73.50
152;DHT22;68;48.792;9.164;2024-03-02T11:21:59;15.30;70.20
152;DHT22;68;48.792;9.164;2024-03-02T11:24:31;16.30;67.30
152;DHT22;68;48.792;9.164;2024-03-02T11:26:59;17.00;65.20
152;DHT22;68;48.792;9.164;2024-03-02T11:29:53;17.10;63.40
152;DHT22;68;48.792;9.164;2024-03-02T11:32:21;17.10;63.80
152;DHT22;68;48.792;9.164;2024-03-02T11:34:50;16.40;63.30
152;DHT22;68;48.792;9.164;2024-03-02T11:37:19;16.60;65.70
152;DHT22;68;48.792;9.164;2024-03-02T11:39:48;17.10;62.00
152;DHT22;68;48.792;9.164;2024-03-02T11:42:15;17.00;62.70
152;DHT22;68;48.792;9.164;2024-03-02T11:44:44;17.50;60.00
152;DHT22;68;48.792;9.164;2024-03-02T11:47:13;17.90;59.90
152;DHT22;68;48.792;9.164;2024-03-02T11:49:41;18.50;57.70
152;DHT22;68;48.792;9.164;2024-03-02T11:52:09;19.30;55.60
152;DHT22;68;48.792;9.164;2024-03-02T11:54:39;17.40;59.20
152;DHT22;68;48.792;9.164;2024-03-02T11:57:07;16.00;62.80
152;DHT22;68;48.792;9.164;2024-03-02T11:59:34;17.30;62.00
152;DHT22;68;48.792;9.164;2024-03-02T12:02:02;17.90;59.30
152;DHT22;68;48.792;9.164;2024-03-02T12:04:29;16.90;63.10
152;DHT22;68;48.792;9.164;2024-03-02T12:06:57;16.10;63.40
152;DHT22;68;48.792;9.164;2024-03-02T12:09:26;16.70;65.10
152;DHT22;68;48.792;9.164;2024-03-02T12:12:05;18.10;58.20
152;DHT22;68;48.792;9.164;2024-03-02T12:14:33;19.40;54.40
152;DHT22;68;48.792;9.164;2024-03-02T12:17:00;20.30;52.30
152;DHT22;68;48.792;9.164;2024-03-02T12:19:27;21.00;51.70
152;DHT22;68;48.792;9.164;2024-03-02T12:21:56;21.90;49.50
152;DHT22;68;48.792;9.164;2024-03-02T12:24:23;21.20;51.00
152;DHT22;68;48.792;9.164;2024-03-02T12:26:50;19.50;51.40
152;DHT22;68;48.792;9.164;2024-03-02T12:29:20;18.50;57.90
152;DHT22;68;48.792;9.164;2024-03-02T12:31:48;19.90;53.60
152;DHT22;68;48.792;9.164;2024-03-02T12:34:16;19.80;51.90
152;DHT22;68;48.792;9.164;2024-03-02T12:36:44;19.80;54.40
152;DHT22;68;48.792;9.164;2024-03-02T12:39:13;20.00;52.90
152;DHT22;68;48.792;9.164;2024-03-02T12:41:40;19.70;52.90
152;DHT22;68;48.792;9.164;2024-03-02T12:44:07;19.00;53.70
152;DHT22;68;48.792;9.164;2024-03-02T12:46:36;18.30;56.50
152;DHT22;68;48.792;9.164;2024-03-02T12:49:07;18.20;56.50
152;DHT22;68;48.792;9.164;2024-03-02T12:51:35;18.50;55.10
152;DHT22;68;48.792;9.164;2024-03-02T12:54:02;17.80;56.50
152;DHT22;68;48.792;9.164;2024-03-02T12:56:30;17.60;58.10
152;DHT22;68;48.792;9.164;2024-03-02T12:58:58;18.30;56.40
152;DHT22;68;48.792;9.164;2024-03-02T13:01:25;18.60;55.10
152;DHT22;68;48.792;9.164;2024-03-02T13:03:54;18.20;56.60
152;DHT22;68;48.792;9.164;2024-03-02T13:06:23;18.00;56.00
152;DHT22;68;48.792;9.164;2024-03-02T13:08:53;17.20;58.40
152;DHT22;68;48.792;9.164;2024-03-02T13:11:21;17.40;58.30
152;DHT22;68;48.792;9.164;2024-03-02T13:13:48;17.00;59.40
152;DHT22;68;48.792;9.164;2024-03-02T13:16:15;17.80;58.00
152;DHT22;68;48.792;9.164;2024-03-02T13:18:44;18.40;56.10
152;DHT22;68;48.792;9.164;2024-03-02T13:21:13;18.00;58.60
152;DHT22;68;48.792;9.164;2024-03-02T13:23:39;18.50;57.70
152;DHT22;68;48.792;9.164;2024-03-02T13:26:06;18.80;57.70
152;DHT22;68;48.792;9.164;2024-03-02T13:28:36;18.90;56.80
152;DHT22;68;48.792;9.164;2024-03-02T13:31:03;19.00;54.90
152;DHT22;68;48.792;9.164;2024-03-02T13:33:30;19.00;54.90
152;DHT22;68;48.792;9.164;2024-03-02T13:35:58;18.00;57.10
152;DHT22;68;48.792;9.164;2024-03-02T13:38:26;17.20;57.90
152;DHT22;68;48.792;9.164;2024-03-02T13:40:53;17.70;57.30
152;DHT22;68;48.792;9.164;2024-03-02T13:43:20;17.20;58.50
152;DHT22;68;48.792;9.164;2024-03-02T13:45:47;17.80;57.40
152;DHT22;68;48.792;9.164;2024-03-02T13:48:13;17.70;57.80
152;DHT22;68;48.792;9.164;2024-03-02T13:50:40;17.10;60.00
152;DHT22;68;48.792;9.164;2024-03-02T13:53:07;17.70;58.10
152;DHT22;68;48.792;9.164;2024-03-02T13:55:36;17.60;57.70
152;DHT22;68;48.792;9.164;2024-03-02T13:58:03;17.90;57.10
152;DHT22;68;48.792;9.164;2024-03-02T14:00:30;17.80;56.90
152;DHT22;68;48.792;9.164;2024-03-02T14:02:57;17.80;56.40
152;DHT22;68;48.792;9.164;2024-03-02T14:05:24;16.60;60.40
152;DHT22;68;48.792;9.164;2024-03-02T14:07:51;16.80;59.70
152;DHT22;68;48.792;9.164;2024-03-02T14:10:17;16.80;59.80
152;DHT22;68;48.792;9.164;2024-03-02T14:12:49;17.10;58.50
152;DHT22;68;48.792;9.164;2024-03-02T14:15:15;17.40;57.60
152;DHT22;68;48.792;9.164;2024-03-02T14:17:42;17.40;58.00
152;DHT22;68;48.792;9.164;2024-03-02T14:20:10;17.00;58.50
152;DHT22;68;48.792;9.164;2024-03-02T14:22:37;16.60;57.90
152;DHT22;68;48.792;9.164;2024-03-02T14:25:05;15.90;59.10
152;DHT22;68;48.792;9.164;2024-03-02T14:27:31;15.40;61.30
152;DHT22;68;48.792;9.164;2024-03-02T14:30:00;15.30;61.30
152;DHT22;68;48.792;9.164;2024-03-02T14:32:27;15.50;62.80
152;DHT22;68;48.792;9.164;2024-03-02T14:34:53;15.70;60.80
152;DHT22;68;48.792;9.164;2024-03-02T14:37:21;15.20;61.50
152;DHT22;68;48.792;9.164;2024-03-02T14:39:47;15.30;62.00
152;DHT22;68;48.792;9.164;2024-03-02T14:42:15;15.60;60.70
152;DHT22;68;48.792;9.164;2024-03-02T14:44:42;16.30;60.50
152;DHT22;68;48.792;9.164;2024-03-02T14:47:10;16.00;59.00
152;DHT22;68;48.792;9.164;2024-03-02T14:49:37;16.20;58.80
152;DHT22;68;48.792;9.164;2024-03-02T14:52:06;15.80;59.40
152;DHT22;68;48.792;9.164;2024-03-02T14:54:33;15.60;60.60
152;DHT22;68;48.792;9.164;2024-03-02T14:57:00;15.40;59.90
152;DHT22;68;48.792;9.164;2024-03-02T14:59:28;15.30;60.50
152;DHT22;68;48.792;9.164;2024-03-02T15:01:55;15.30;62.90
152;DHT22;68;48.792;9.164;2024-03-02T15:04:23;15.50;61.70
152;DHT22;68;48.792;9.164;2024-03-02T15:06:50;15.60;59.80
152;DHT22;68;48.792;9.164;2024-03-02T15:09:17;15.30;59.60
152;DHT22;68;48.792;9.164;2024-03-02T15:11:45;15.40;60.90
152;DHT22;68;48.792;9.164;2024-03-02T15:14:12;15.40;59.30
152;DHT22;68;48.792;9.164;2024-03-02T15:16:39;15.70;58.70
152;DHT22;68;48.792;9.164;2024-03-02T15:19:06;16.00;57.00
152;DHT22;68;48.792;9.164;2024-03-02T15:21:34;16.00;56.50
152;DHT22;68;48.792;9.164;2024-03-02T15:24:00;15.90;57.80
152;DHT22;68;48.792;9.164;2024-03-02T15:26:27;15.60;57.50
152;DHT22;68;48.792;9.164;2024-03-02T15:28:54;15.50;57.60
152;DHT22;68;48.792;9.164;2024-03-02T15:31:23;15.50;57.20
152;DHT22;68;48.792;9.164;2024-03-02T15:33:50;15.60;57.10
152;DHT22;68;48.792;9.164;2024-03-02T15:36:18;15.60;57.70
152;DHT22;68;48.792;9.164;2024-03-02T15:38:47;15.10;58.20
152;DHT22;68;48.792;9.164;2024-03-02T15:41:13;14.90;59.20
152;DHT22;68;48.792;9.164;2024-03-02T15:43:40;14.80;59.10
152;DHT22;68;48.792;9.164;2024-03-02T15:46:08;14.80;60.10
152;DHT22;68;48.792;9.164;2024-03-02T15:48:35;14.70;59.70
152;DHT22;68;48.792;9.164;2024-03-02T15:51:03;14.70;59.50
152;DHT22;68;48.792;9.164;2024-03-02T15:53:30;14.70;60.60
152;DHT22;68;48.792;9.164;2024-03-02T15:55:59;14.90;60.40
152;DHT22;68;48.792;9.164;2024-03-02T15:58:25;15.10;59.70
152;DHT22;68;48.792;9.164;2024-03-02T16:00:52;15.20;59.50
152;DHT22;68;48.792;9.164;2024-03-02T16:03:19;15.20;59.30
152;DHT22;68;48.792;9.164;2024-03-02T16:05:46;15.00;59.70
152;DHT22;68;48.792;9.164;2024-03-02T16:08:13;14.80;60.40
152;DHT22;68;48.792;9.164;2024-03-02T16:10:39;14.80;60.60
152;DHT22;68;48.792;9.164;2024-03-02T16:13:07;14.90;60.50
152;DHT22;68;48.792;9.164;2024-03-02T16:15:34;14.80;59.70
152;DHT22;68;48.792;9.164;2024-03-02T16:18:01;14.80;60.70
152;DHT22;68;48.792;9.164;2024-03-02T16:20:28;14.80;61.30
152;DHT22;68;48.792;9.164;2024-03-02T16:22:55;14.90;61.50
152;DHT22;68;48.792;9.164;2024-03-02T16:25:21;14.70;62.90
152;DHT22;68;48.792;9.164;2024-03-02T16:27:50;14.60;63.70
152;DHT22;68;48.792;9.164;2024-03-02T16:30:18;14.70;63.50
152;DHT22;68;48.792;9.164;2024-03-02T16:32:46;14.50;64.30
152;DHT22;68;48.792;9.164;2024-03-02T16:35:13;14.40;65.00
152;DHT22;68;48.792;9.164;2024-03-02T16:37:40;14.20;65.50
152;DHT22;68;48.792;9.164;2024-03-02T16:40:08;14.20;66.00
152;DHT22;68;48.792;9.164;2024-03-02T16:42:35;14.00;67.50
152;DHT22;68;48.792;9.164;2024-03-02T16:45:02;14.10;66.70
152;DHT22;68;48.792;9.164;2024-03-02T16:47:30;14.20;66.90
152;DHT22;68;48.792;9.164;2024-03-02T16:49:57;13.80;68.00
152;DHT22;68;48.792;9.164;2024-03-02T16:52:24;13.60;68.90
152;DHT22;68;48.792;9.164;2024-03-02T16:54:51;13.70;69.20
152;DHT22;68;48.792;9.164;2024-03-02T16:57:18;13.90;68.50
152;DHT22;68;48.792;9.164;2024-03-02T16:59:45;14.00;68.50
152;DHT22;68;48.792;9.164;2024-03-02T17:02:12;14.00;68.40
152;DHT22;68;48.792;9.164;2024-03-02T17:04:40;13.80;69.10